sensor_id;sensor_type;location;lat;lon;timestamp;pressure;altitude;pressure_sealevel;temperature;humidity
45813;BME280;31519;45.408;10.962;2023-02-28T00:01:33;101253.28;;;8.62;39.72
45813;BME280;31519;45.408;10.962;2023-02-28T00:04:01;101266.44;;;8.92;39.69
45813;BME280;31519;45.408;10.962;2023-02-28T00:06:30;101253.66;;;8.99;39.16
45813;BME280;31519;45.408;10.962;2023-02-28T00:31:49;101277.25;;;8.47;40.14
45813;BME280;31519;45.408;10.962;2023-02-28T00:34:17;101270.63;;;8.44;40.42
45813;BME280;31519;45.408;10.962;2023-02-28T00:36:46;101288.19;;;8.30;40.64
45813;BME280;31519;45.408;10.962;2023-02-28T00:39:17;101287.91;;;8.26;40.60
45813;BME280;31519;45.408;10.962;2023-02-28T00:41:46;101286.06;;;8.37;40.52
45813;BME280;31519;45.408;10.962;2023-02-28T00:44:14;101287.38;;;8.34;40.51
45813;BME280;31519;45.408;10.962;2023-02-28T00:46:42;101289.75;;;8.41;40.29
45813;BME280;31519;45.408;10.962;2023-02-28T00:49:10;101296.16;;;8.25;40.40
45813;BME280;31519;45.408;10.962;2023-02-28T00:51:38;101292.16;;;8.37;40.66
45813;BME280;31519;45.408;10.962;2023-02-28T00:54:06;101288.13;;;8.55;39.92
45813;BME280;31519;45.408;10.962;2023-02-28T00:56:34;101300.09;;;8.48;40.14
45813;BME280;31519;45.408;10.962;2023-02-28T00:59:02;101304.09;;;8.40;40.47
45813;BME280;31519;45.408;10.962;2023-02-28T01:01:30;101299.06;;;8.38;40.40
45813;BME280;31519;45.408;10.962;2023-02-28T01:03:58;101301.47;;;8.20;40.78
45813;BME280;31519;45.408;10.962;2023-02-28T01:06:26;101311.00;;;8.31;40.47
45813;BME280;31519;45.408;10.962;2023-02-28T01:08:54;101303.81;;;8.41;40.68
45813;BME280;31519;45.408;10.962;2023-02-28T01:11:23;101310.44;;;8.39;40.61
45813;BME280;31519;45.408;10.962;2023-02-28T01:13:52;101311.25;;;8.24;41.16
45813;BME280;31519;45.408;10.962;2023-02-28T01:16:21;101319.75;;;8.31;40.96
45813;BME280;31519;45.408;10.962;2023-02-28T01:18:48;101326.38;;;8.49;40.35
45813;BME280;31519;45.408;10.962;2023-02-28T01:21:19;101329.53;;;8.56;40.79
45813;BME280;31519;45.408;10.962;2023-02-28T01:23:48;101316.00;;;8.53;40.63
45813;BME280;31519;45.408;10.962;2023-02-28T01:26:21;101327.41;;;8.53;40.81
45813;BME280;31519;45.408;10.962;2023-02-28T01:28:51;101314.44;;;8.41;40.68
45813;BME280;31519;45.408;10.962;2023-02-28T01:31:21;101314.19;;;8.33;41.49
45813;BME280;31519;45.408;10.962;2023-02-28T01:33:49;101307.75;;;8.54;41.05
45813;BME280;31519;45.408;10.962;2023-02-28T01:36:20;101312.81;;;8.56;41.14
45813;BME280;31519;45.408;10.962;2023-02-28T01:38:48;101309.69;;;8.38;41.61
45813;BME280;31519;45.408;10.962;2023-02-28T01:41:22;101314.19;;;8.18;41.53
45813;BME280;31519;45.408;10.962;2023-02-28T01:44:06;101321.88;;;8.14;41.36
45813;BME280;31519;45.408;10.962;2023-02-28T01:46:35;101318.69;;;8.37;41.61
45813;BME280;31519;45.408;10.962;2023-02-28T01:49:13;101315.53;;;8.20;41.33
45813;BME280;31519;45.408;10.962;2023-02-28T01:51:46;101324.00;;;8.27;41.43
45813;BME280;31519;45.408;10.962;2023-02-28T01:54:31;101318.44;;;8.34;41.55
45813;BME280;31519;45.408;10.962;2023-02-28T01:57:05;101320.28;;;8.13;41.74
45813;BME280;31519;45.408;10.962;2023-02-28T01:59:38;101316.59;;;8.04;41.75
45813;BME280;31519;45.408;10.962;2023-02-28T02:02:14;101317.09;;;8.36;41.72
45813;BME280;31519;45.408;10.962;2023-02-28T02:04:54;101305.41;;;8.42;41.10
45813;BME280;31519;45.408;10.962;2023-02-28T02:07:24;101307.03;;;8.18;41.69
45813;BME280;31519;45.408;10.962;2023-02-28T02:16:14;101304.38;;;8.33;41.12
45813;BME280;31519;45.408;10.962;2023-02-28T02:18:52;101302.50;;;8.39;40.98
45813;BME280;31519;45.408;10.962;2023-02-28T02:21:54;101298.78;;;8.25;41.57
45813;BME280;31519;45.408;10.962;2023-02-28T02:38:35;101294.41;;;8.79;40.37
45813;BME280;31519;45.408;10.962;2023-02-28T02:46:37;101297.91;;;8.65;40.94
45813;BME280;31519;45.408;10.962;2023-02-28T02:49:09;101285.94;;;8.72;41.03
45813;BME280;31519;45.408;10.962;2023-02-28T02:51:41;101296.28;;;8.74;40.93
45813;BME280;31519;45.408;10.962;2023-02-28T02:54:15;101296.84;;;8.66;40.97
45813;BME280;31519;45.408;10.962;2023-02-28T02:56:47;101296.06;;;8.65;40.84
45813;BME280;31519;45.408;10.962;2023-02-28T02:59:18;101291.47;;;8.76;40.67
45813;BME280;31519;45.408;10.962;2023-02-28T03:01:56;101292.09;;;8.58;41.09
45813;BME280;31519;45.408;10.962;2023-02-28T03:04:28;101287.31;;;8.55;40.92
45813;BME280;31519;45.408;10.962;2023-02-28T03:06:59;101293.13;;;8.62;40.84
45813;BME280;31519;45.408;10.962;2023-02-28T03:09:28;101299.78;;;8.59;40.84
45813;BME280;31519;45.408;10.962;2023-02-28T03:11:57;101304.28;;;8.69;40.85
45813;BME280;31519;45.408;10.962;2023-02-28T03:23:12;101294.16;;;8.71;40.87
45813;BME280;31519;45.408;10.962;2023-02-28T03:28:23;101293.91;;;8.62;40.67
45813;BME280;31519;45.408;10.962;2023-02-28T03:31:10;101293.69;;;8.54;40.77
45813;BME280;31519;45.408;10.962;2023-02-28T03:37:08;101291.03;;;8.54;40.92
45813;BME280;31519;45.408;10.962;2023-02-28T03:39:45;101301.94;;;8.52;40.98
45813;BME280;31519;45.408;10.962;2023-02-28T03:42:19;101300.91;;;8.38;40.91
45813;BME280;31519;45.408;10.962;2023-02-28T03:45:05;101298.75;;;8.50;40.90
45813;BME280;31519;45.408;10.962;2023-02-28T03:47:45;101304.31;;;8.49;41.04
45813;BME280;31519;45.408;10.962;2023-02-28T03:50:21;101309.94;;;8.42;41.41
45813;BME280;31519;45.408;10.962;2023-02-28T03:52:53;101296.41;;;8.38;41.47
45813;BME280;31519;45.408;10.962;2023-02-28T03:55:34;101295.06;;;8.21;41.77
45813;BME280;31519;45.408;10.962;2023-02-28T04:01:09;101303.03;;;8.21;41.70
45813;BME280;31519;45.408;10.962;2023-02-28T04:03:39;101308.59;;;8.34;41.47
45813;BME280;31519;45.408;10.962;2023-02-28T04:06:14;101320.28;;;8.13;41.93
45813;BME280;31519;45.408;10.962;2023-02-28T04:08:43;101316.59;;;7.99;42.26
45813;BME280;31519;45.408;10.962;2023-02-28T04:11:24;101320.03;;;8.05;42.24
45813;BME280;31519;45.408;10.962;2023-02-28T04:13:53;101322.16;;;8.18;42.44
45813;BME280;31519;45.408;10.962;2023-02-28T04:16:22;101323.19;;;8.07;42.23
45813;BME280;31519;45.408;10.962;2023-02-28T04:19:06;101330.09;;;8.08;42.21
45813;BME280;31519;45.408;10.962;2023-02-28T04:21:46;101330.09;;;8.13;41.90
45813;BME280;31519;45.408;10.962;2023-02-28T04:24:20;101336.22;;;8.08;41.89
45813;BME280;31519;45.408;10.962;2023-02-28T04:26:53;101334.09;;;8.00;42.48
45813;BME280;31519;45.408;10.962;2023-02-28T04:29:29;101334.09;;;8.10;41.97
45813;BME280;31519;45.408;10.962;2023-02-28T04:31:59;101336.50;;;8.01;41.80
45813;BME280;31519;45.408;10.962;2023-02-28T04:34:29;101333.56;;;7.98;42.05
45813;BME280;31519;45.408;10.962;2023-02-28T04:36:58;101341.00;;;8.01;42.09
45813;BME280;31519;45.408;10.962;2023-02-28T04:39:43;101336.47;;;8.07;42.54
45813;BME280;31519;45.408;10.962;2023-02-28T04:42:12;101342.06;;;8.10;42.40
45813;BME280;31519;45.408;10.962;2023-02-28T04:44:40;101328.50;;;8.17;42.32
45813;BME280;31519;45.408;10.962;2023-02-28T04:47:09;101338.34;;;8.01;42.37
45813;BME280;31519;45.408;10.962;2023-02-28T04:49:37;101334.09;;;8.00;42.50
45813;BME280;31519;45.408;10.962;2023-02-28T04:52:05;101325.59;;;7.93;42.92
45813;BME280;31519;45.408;10.962;2023-02-28T04:54:35;101330.91;;;8.08;42.48
45813;BME280;31519;45.408;10.962;2023-02-28T04:57:03;101332.22;;;8.21;42.30
45813;BME280;31519;45.408;10.962;2023-02-28T04:59:32;101330.91;;;8.23;42.75
45813;BME280;31519;45.408;10.962;2023-02-28T05:02:00;101330.91;;;8.23;42.09
45813;BME280;31519;45.408;10.962;2023-02-28T05:04:34;101335.41;;;8.18;42.80
45813;BME280;31519;45.408;10.962;2023-02-28T05:07:03;101339.13;;;8.22;42.48
45813;BME280;31519;45.408;10.962;2023-02-28T05:09:31;101338.06;;;8.08;42.57
45813;BME280;31519;45.408;10.962;2023-02-28T05:12:00;101340.47;;;8.34;42.43
45813;BME280;31519;45.408;10.962;2023-02-28T05:14:28;101329.59;;;8.31;42.32
45813;BME280;31519;45.408;10.962;2023-02-28T05:16:56;101335.66;;;8.26;42.22
45813;BME280;31519;45.408;10.962;2023-02-28T05:19:25;101333.28;;;8.40;42.58
45813;BME280;31519;45.408;10.962;2023-02-28T05:21:54;101332.53;;;8.29;42.52
45813;BME280;31519;45.408;10.962;2023-02-28T05:24:22;101326.66;;;8.32;42.56
45813;BME280;31519;45.408;10.962;2023-02-28T05:26:52;101335.94;;;8.25;42.34
45813;BME280;31519;45.408;10.962;2023-02-28T05:29:21;101333.28;;;8.30;42.25
45813;BME280;31519;45.408;10.962;2023-02-28T05:31:49;101331.19;;;8.32;42.21
45813;BME280;31519;45.408;10.962;2023-02-28T05:34:17;101328.50;;;8.22;42.08
45813;BME280;31519;45.408;10.962;2023-02-28T05:36:46;101331.69;;;8.39;41.88
45813;BME280;31519;45.408;10.962;2023-02-28T05:39:14;101330.13;;;8.33;41.71
45813;BME280;31519;45.408;10.962;2023-02-28T05:41:43;101331.97;;;8.37;41.62
45813;BME280;31519;45.408;10.962;2023-02-28T05:44:11;101326.38;;;8.39;41.93
45813;BME280;31519;45.408;10.962;2023-02-28T05:46:40;101324.00;;;8.27;41.84
45813;BME280;31519;45.408;10.962;2023-02-28T05:49:08;101329.59;;;8.31;41.87
45813;BME280;31519;45.408;10.962;2023-02-28T05:51:36;101326.09;;;8.25;41.82
45813;BME280;31519;45.408;10.962;2023-02-28T05:54:07;101334.88;;;8.21;42.23
45813;BME280;31519;45.408;10.962;2023-02-28T05:56:36;101327.72;;;8.36;41.80
45813;BME280;31519;45.408;10.962;2023-02-28T05:59:06;101334.34;;;8.24;42.30
45813;BME280;31519;45.408;10.962;2023-02-28T06:01:42;101338.88;;;8.33;42.17
45813;BME280;31519;45.408;10.962;2023-02-28T06:04:18;101344.72;;;8.10;42.46
45813;BME280;31519;45.408;10.962;2023-02-28T06:06:58;101347.63;;;8.19;42.58
45813;BME280;31519;45.408;10.962;2023-02-28T06:09:26;101346.31;;;8.01;41.92
45813;BME280;31519;45.408;10.962;2023-02-28T06:12:00;101350.78;;;8.26;42.06
45813;BME280;31519;45.408;10.962;2023-02-28T06:14:33;101354.78;;;8.28;41.87
45813;BME280;31519;45.408;10.962;2023-02-28T06:17:03;101361.16;;;8.22;42.75
45813;BME280;31519;45.408;10.962;2023-02-28T06:19:31;101361.69;;;8.24;42.37
45813;BME280;31519;45.408;10.962;2023-02-28T06:21:59;101365.16;;;8.15;42.51
45813;BME280;31519;45.408;10.962;2023-02-28T06:24:27;101376.31;;;8.37;42.13
45813;BME280;31519;45.408;10.962;2023-02-28T06:26:55;101368.31;;;8.22;42.67
45813;BME280;31519;45.408;10.962;2023-02-28T06:29:23;101368.34;;;8.37;42.29
45813;BME280;31519;45.408;10.962;2023-02-28T06:31:51;101370.97;;;8.52;41.70
45813;BME280;31519;45.408;10.962;2023-02-28T06:34:19;101367.78;;;8.40;42.30
45813;BME280;31519;45.408;10.962;2023-02-28T06:36:50;101375.75;;;8.60;42.07
45813;BME280;31519;45.408;10.962;2023-02-28T06:39:19;101368.56;;;8.66;41.96
45813;BME280;31519;45.408;10.962;2023-02-28T06:41:47;101375.19;;;8.63;41.72
45813;BME280;31519;45.408;10.962;2023-02-28T06:44:23;101376.47;;;8.81;42.08
45813;BME280;31519;45.408;10.962;2023-02-28T06:46:51;101378.03;;;8.92;41.50
45813;BME280;31519;45.408;10.962;2023-02-28T06:49:19;101382.00;;;8.89;41.28
45813;BME280;31519;45.408;10.962;2023-02-28T06:51:48;101394.00;;;8.77;41.54
45813;BME280;31519;45.408;10.962;2023-02-28T06:54:16;101392.38;;;8.91;41.53
45813;BME280;31519;45.408;10.962;2023-02-28T06:56:44;101392.38;;;8.91;40.87
45813;BME280;31519;45.408;10.962;2023-02-28T06:59:12;101382.53;;;8.97;41.21
45813;BME280;31519;45.408;10.962;2023-02-28T07:01:41;101387.63;;;8.88;41.02
45813;BME280;31519;45.408;10.962;2023-02-28T07:04:09;101393.66;;;9.09;40.88
45813;BME280;31519;45.408;10.962;2023-02-28T07:06:37;101380.13;;;9.05;40.34
45813;BME280;31519;45.408;10.962;2023-02-28T07:09:05;101387.75;;;9.17;40.50
45813;BME280;31519;45.408;10.962;2023-02-28T07:11:34;101393.41;;;9.05;40.75
45813;BME280;31519;45.408;10.962;2023-02-28T07:14:02;101400.22;;;9.26;40.25
45813;BME280;31519;45.408;10.962;2023-02-28T07:16:30;101386.41;;;9.29;40.60
45813;BME280;31519;45.408;10.962;2023-02-28T07:18:59;101387.44;;;9.33;40.23
45813;BME280;31519;45.408;10.962;2023-02-28T07:21:27;101389.78;;;9.40;40.28
45813;BME280;31519;45.408;10.962;2023-02-28T07:23:55;101391.81;;;9.58;40.05
45813;BME280;31519;45.408;10.962;2023-02-28T07:26:24;101394.44;;;9.63;40.03
45813;BME280;31519;45.408;10.962;2023-02-28T07:28:52;101393.66;;;9.63;39.89
45813;BME280;31519;45.408;10.962;2023-02-28T07:31:21;101400.84;;;9.62;39.51
45813;BME280;31519;45.408;10.962;2023-02-28T07:33:49;101394.78;;;9.91;39.23
45813;BME280;31519;45.408;10.962;2023-02-28T07:36:17;101398.94;;;9.68;39.50
45813;BME280;31519;45.408;10.962;2023-02-28T07:38:48;101399.91;;;9.82;40.06
45813;BME280;31519;45.408;10.962;2023-02-28T07:41:20;101397.38;;;9.67;39.46
45813;BME280;31519;45.408;10.962;2023-02-28T07:43:48;101395.88;;;9.90;39.11
45813;BME280;31519;45.408;10.962;2023-02-28T07:46:17;101398.56;;;9.90;39.26
45813;BME280;31519;45.408;10.962;2023-02-28T07:48:45;101399.81;;;9.97;38.75
45813;BME280;31519;45.408;10.962;2023-02-28T07:51:14;101396.13;;;9.93;38.84
45813;BME280;31519;45.408;10.962;2023-02-28T07:53:42;101402.13;;;10.04;38.72
45813;BME280;31519;45.408;10.962;2023-02-28T07:56:10;101402.09;;;10.09;38.27
45813;BME280;31519;45.408;10.962;2023-02-28T07:58:38;101400.03;;;10.40;38.36
45813;BME280;31519;45.408;10.962;2023-02-28T08:01:07;101398.59;;;10.52;37.83
45813;BME280;31519;45.408;10.962;2023-02-28T08:03:37;101398.78;;;10.85;37.13
45813;BME280;31519;45.408;10.962;2023-02-28T08:06:07;101398.00;;;10.27;37.66
45813;BME280;31519;45.408;10.962;2023-02-28T08:08:35;101411.28;;;10.32;37.79
45813;BME280;31519;45.408;10.962;2023-02-28T08:11:03;101405.00;;;10.17;38.16
45813;BME280;31519;45.408;10.962;2023-02-28T08:13:31;101401.63;;;10.02;37.84
45813;BME280;31519;45.408;10.962;2023-02-28T08:16:01;101406.38;;;10.10;37.99
45813;BME280;31519;45.408;10.962;2023-02-28T08:18:30;101404.50;;;10.15;38.04
45813;BME280;31519;45.408;10.962;2023-02-28T08:20:58;101401.09;;;10.68;36.81
45813;BME280;31519;45.408;10.962;2023-02-28T08:23:26;101407.16;;;10.73;36.84
45813;BME280;31519;45.408;10.962;2023-02-28T08:25:55;101409.09;;;10.91;36.15
45813;BME280;31519;45.408;10.962;2023-02-28T08:28:24;101403.81;;;11.52;36.00
45813;BME280;31519;45.408;10.962;2023-02-28T08:30:54;101415.28;;;11.53;35.41
45813;BME280;31519;45.408;10.962;2023-02-28T08:33:24;101416.75;;;11.83;35.20
45813;BME280;31519;45.408;10.962;2023-02-28T08:35:56;101414.22;;;12.24;34.62
45813;BME280;31519;45.408;10.962;2023-02-28T08:38:24;101423.13;;;12.52;34.80
45813;BME280;31519;45.408;10.962;2023-02-28T08:41:00;101415.50;;;12.45;34.47
45813;BME280;31519;45.408;10.962;2023-02-28T08:43:29;101420.53;;;12.47;34.48
45813;BME280;31519;45.408;10.962;2023-02-28T08:45:57;101421.88;;;12.76;34.25
45813;BME280;31519;45.408;10.962;2023-02-28T08:48:26;101404.66;;;12.82;34.19
45813;BME280;31519;45.408;10.962;2023-02-28T08:50:57;101420.09;;;12.72;34.06
45813;BME280;31519;45.408;10.962;2023-02-28T08:53:35;101415.56;;;12.40;34.30
45813;BME280;31519;45.408;10.962;2023-02-28T08:56:11;101410.41;;;13.17;33.68
45813;BME280;31519;45.408;10.962;2023-02-28T08:58:40;101412.78;;;12.91;33.19
45813;BME280;31519;45.408;10.962;2023-02-28T09:01:13;101409.63;;;13.16;33.05
45813;BME280;31519;45.408;10.962;2023-02-28T09:03:42;101423.28;;;12.74;33.81
45813;BME280;31519;45.408;10.962;2023-02-28T09:06:10;101418.69;;;12.61;33.63
45813;BME280;31519;45.408;10.962;2023-02-28T09:08:39;101422.97;;;13.03;33.31
45813;BME280;31519;45.408;10.962;2023-02-28T09:11:08;101419.22;;;13.04;32.76
45813;BME280;31519;45.408;10.962;2023-02-28T09:13:37;101427.75;;;13.33;32.15
45813;BME280;31519;45.408;10.962;2023-02-28T09:16:08;101425.47;;;13.26;32.99
45813;BME280;31519;45.408;10.962;2023-02-28T09:18:39;101429.53;;;13.51;32.69
45813;BME280;31519;45.408;10.962;2023-02-28T09:21:12;101422.31;;;13.74;32.56
45813;BME280;31519;45.408;10.962;2023-02-28T09:23:43;101427.16;;;13.36;32.83
45813;BME280;31519;45.408;10.962;2023-02-28T09:26:17;101422.06;;;13.48;32.53
45813;BME280;31519;45.408;10.962;2023-02-28T09:28:46;101419.50;;;13.93;31.60
45813;BME280;31519;45.408;10.962;2023-02-28T09:31:17;101423.16;;;13.61;31.85
45813;BME280;31519;45.408;10.962;2023-02-28T09:33:49;101432.53;;;13.22;32.66
45813;BME280;31519;45.408;10.962;2023-02-28T09:36:18;101415.78;;;13.17;32.31
45813;BME280;31519;45.408;10.962;2023-02-28T09:38:46;101423.50;;;14.04;31.48
45813;BME280;31519;45.408;10.962;2023-02-28T09:41:22;101421.56;;;14.40;31.13
45813;BME280;31519;45.408;10.962;2023-02-28T09:43:56;101422.41;;;14.80;30.19
45813;BME280;31519;45.408;10.962;2023-02-28T09:46:39;101422.09;;;14.90;30.22
45813;BME280;31519;45.408;10.962;2023-02-28T09:49:22;101425.31;;;14.61;30.78
45813;BME280;31519;45.408;10.962;2023-02-28T09:52:01;101421.25;;;15.12;30.08
45813;BME280;31519;45.408;10.962;2023-02-28T09:54:31;101420.16;;;15.22;29.23
45813;BME280;31519;45.408;10.962;2023-02-28T10:11:38;101417.03;;;14.80;29.93
45813;BME280;31519;45.408;10.962;2023-02-28T10:14:19;101411.63;;;15.20;29.06
45813;BME280;31519;45.408;10.962;2023-02-28T10:16:56;101417.91;;;15.06;28.85
45813;BME280;31519;45.408;10.962;2023-02-28T10:19:46;101412.63;;;15.49;28.94
45813;BME280;31519;45.408;10.962;2023-02-28T10:22:20;101413.78;;;15.00;28.97
45813;BME280;31519;45.408;10.962;2023-02-28T10:24:52;101411.38;;;14.51;29.61
45813;BME280;31519;45.408;10.962;2023-02-28T10:27:26;101407.53;;;15.31;29.13
45813;BME280;31519;45.408;10.962;2023-02-28T10:29:59;101408.03;;;15.41;28.86
45813;BME280;31519;45.408;10.962;2023-02-28T10:32:32;101405.50;;;15.36;28.77
45813;BME280;31519;45.408;10.962;2023-02-28T10:37:40;101412.19;;;15.56;29.14
45813;BME280;31519;45.408;10.962;2023-02-28T10:40:33;101409.50;;;15.90;28.71
45813;BME280;31519;45.408;10.962;2023-02-28T10:43:05;101404.72;;;15.36;29.21
45813;BME280;31519;45.408;10.962;2023-02-28T10:45:57;101412.19;;;15.82;28.91
45813;BME280;31519;45.408;10.962;2023-02-28T10:51:03;101407.50;;;16.60;28.03
45813;BME280;31519;45.408;10.962;2023-02-28T10:56:28;101385.19;;;17.26;26.87
45813;BME280;31519;45.408;10.962;2023-02-28T10:59:29;101385.84;;;17.44;26.76
45813;BME280;31519;45.408;10.962;2023-02-28T11:01:58;101386.22;;;17.63;26.24
45813;BME280;31519;45.408;10.962;2023-02-28T11:09:40;101373.88;;;17.95;26.33
45813;BME280;31519;45.408;10.962;2023-02-28T11:12:37;101371.91;;;18.16;26.17
45813;BME280;31519;45.408;10.962;2023-02-28T11:15:24;101367.78;;;18.19;25.86
45813;BME280;31519;45.408;10.962;2023-02-28T11:20:29;101366.31;;;18.22;25.95
45813;BME280;31519;45.408;10.962;2023-02-28T11:23:01;101366.69;;;17.99;25.28
45813;BME280;31519;45.408;10.962;2023-02-28T11:25:38;101371.47;;;17.82;25.50
45813;BME280;31519;45.408;10.962;2023-02-28T11:28:25;101361.81;;;17.39;26.37
45813;BME280;31519;45.408;10.962;2023-02-28T11:31:01;101357.19;;;18.14;25.72
45813;BME280;31519;45.408;10.962;2023-02-28T11:36:03;101344.47;;;18.72;25.44
45813;BME280;31519;45.408;10.962;2023-02-28T11:38:32;101335.03;;;18.78;25.20
45813;BME280;31519;45.408;10.962;2023-02-28T11:41:05;101340.78;;;18.64;25.53
45813;BME280;31519;45.408;10.962;2023-02-28T11:51:51;101332.84;;;19.20;24.23
45813;BME280;31519;45.408;10.962;2023-02-28T11:57:08;101331.47;;;19.66;24.07
45813;BME280;31519;45.408;10.962;2023-02-28T11:59:51;101315.19;;;19.78;24.08
45813;BME280;31519;45.408;10.962;2023-02-28T12:05:39;101301.53;;;18.79;24.37
45813;BME280;31519;45.408;10.962;2023-02-28T12:19:54;101280.31;;;18.93;24.78
45813;BME280;31519;45.408;10.962;2023-02-28T12:22:49;101277.47;;;18.74;25.64
45813;BME280;31519;45.408;10.962;2023-02-28T12:28:25;101274.03;;;20.00;24.24
45813;BME280;31519;45.408;10.962;2023-02-28T12:31:36;101271.84;;;20.21;24.21
45813;BME280;31519;45.408;10.962;2023-02-28T12:34:10;101259.53;;;19.61;24.31
45813;BME280;31519;45.408;10.962;2023-02-28T12:36:43;101264.72;;;19.54;24.27
45813;BME280;31519;45.408;10.962;2023-02-28T12:39:27;101256.66;;;19.14;25.40
45813;BME280;31519;45.408;10.962;2023-02-28T12:42:05;101259.56;;;18.81;24.73
45813;BME280;31519;45.408;10.962;2023-02-28T12:44:49;101253.84;;;17.65;25.97
45813;BME280;31519;45.408;10.962;2023-02-28T12:47:20;101249.03;;;19.04;25.47
45813;BME280;31519;45.408;10.962;2023-02-28T12:49:52;101248.38;;;16.78;27.51
45813;BME280;31519;45.408;10.962;2023-02-28T12:55:49;101240.94;;;19.60;24.73
45813;BME280;31519;45.408;10.962;2023-02-28T12:58:28;101234.97;;;19.98;24.28
45813;BME280;31519;45.408;10.962;2023-02-28T13:03:49;101231.28;;;19.74;24.71
45813;BME280;31519;45.408;10.962;2023-02-28T13:09:20;101232.75;;;20.85;23.53
45813;BME280;31519;45.408;10.962;2023-02-28T13:11:51;101223.91;;;20.53;23.78
45813;BME280;31519;45.408;10.962;2023-02-28T13:14:24;101225.31;;;19.53;24.56
45813;BME280;31519;45.408;10.962;2023-02-28T13:17:02;101223.19;;;19.74;24.25
45813;BME280;31519;45.408;10.962;2023-02-28T13:27:51;101210.50;;;20.95;23.76
45813;BME280;31519;45.408;10.962;2023-02-28T13:33:26;101198.34;;;19.41;24.84
45813;BME280;31519;45.408;10.962;2023-02-28T13:38:44;101202.66;;;20.90;23.74
45813;BME280;31519;45.408;10.962;2023-02-28T13:44:21;101203.88;;;21.12;23.89
45813;BME280;31519;45.408;10.962;2023-02-28T13:55:15;101183.19;;;21.42;23.70
45813;BME280;31519;45.408;10.962;2023-02-28T14:00:54;101184.78;;;20.31;24.33
45813;BME280;31519;45.408;10.962;2023-02-28T14:06:28;101180.63;;;19.71;25.54
45813;BME280;31519;45.408;10.962;2023-02-28T14:09:06;101174.06;;;20.54;24.66
45813;BME280;31519;45.408;10.962;2023-02-28T14:11:44;101176.63;;;21.05;23.46
45813;BME280;31519;45.408;10.962;2023-02-28T14:17:06;101165.97;;;20.93;23.90
45813;BME280;31519;45.408;10.962;2023-02-28T14:19:38;101176.47;;;21.36;23.84
45813;BME280;31519;45.408;10.962;2023-02-28T14:30:26;101170.78;;;19.79;25.54
45813;BME280;31519;45.408;10.962;2023-02-28T14:36:45;101159.38;;;18.98;26.13
45813;BME280;31519;45.408;10.962;2023-02-28T14:39:16;101160.63;;;18.73;27.00
45813;BME280;31519;45.408;10.962;2023-02-28T14:41:45;101153.53;;;19.52;25.70
45813;BME280;31519;45.408;10.962;2023-02-28T14:44:23;101147.13;;;19.76;25.71
45813;BME280;31519;45.408;10.962;2023-02-28T14:46:54;101155.69;;;19.78;26.08
45813;BME280;31519;45.408;10.962;2023-02-28T14:49:31;101147.38;;;20.02;25.52
45813;BME280;31519;45.408;10.962;2023-02-28T14:54:35;101137.38;;;19.71;25.87
45813;BME280;31519;45.408;10.962;2023-02-28T14:57:04;101140.16;;;19.43;26.51
45813;BME280;31519;45.408;10.962;2023-02-28T14:59:35;101137.88;;;19.92;26.04
45813;BME280;31519;45.408;10.962;2023-02-28T15:02:19;101137.31;;;20.18;25.50
45813;BME280;31519;45.408;10.962;2023-02-28T15:04:53;101132.75;;;20.76;24.73
45813;BME280;31519;45.408;10.962;2023-02-28T15:07:22;101132.50;;;21.04;24.37
45813;BME280;31519;45.408;10.962;2023-02-28T15:10:19;101136.25;;;20.58;24.46
45813;BME280;31519;45.408;10.962;2023-02-28T15:13:05;101142.19;;;22.75;22.93
45813;BME280;31519;45.408;10.962;2023-02-28T15:15:59;101137.13;;;23.48;21.67
45813;BME280;31519;45.408;10.962;2023-02-28T15:21:07;101136.66;;;24.51;20.94
45813;BME280;31519;45.408;10.962;2023-02-28T15:23:40;101134.19;;;25.75;19.60
45813;BME280;31519;45.408;10.962;2023-02-28T15:26:15;101131.75;;;26.37;19.27
45813;BME280;31519;45.408;10.962;2023-02-28T15:28:45;101138.00;;;26.27;18.87
45813;BME280;31519;45.408;10.962;2023-02-28T15:31:27;101131.75;;;26.27;19.13
45813;BME280;31519;45.408;10.962;2023-02-28T15:34:06;101131.25;;;26.67;18.67
45813;BME280;31519;45.408;10.962;2023-02-28T15:36:43;101126.78;;;25.83;19.74
45813;BME280;31519;45.408;10.962;2023-02-28T15:39:24;101136.50;;;25.41;19.70
45813;BME280;31519;45.408;10.962;2023-02-28T15:42:10;101133.22;;;24.72;20.25
45813;BME280;31519;45.408;10.962;2023-02-28T15:44:39;101140.25;;;24.69;20.73
45813;BME280;31519;45.408;10.962;2023-02-28T15:47:23;101139.56;;;25.11;19.92
45813;BME280;31519;45.408;10.962;2023-02-28T15:49:57;101148.22;;;22.32;22.66
45813;BME280;31519;45.408;10.962;2023-02-28T15:52:39;101141.09;;;20.68;24.41
45813;BME280;31519;45.408;10.962;2023-02-28T15:55:20;101144.56;;;19.99;25.46
45813;BME280;31519;45.408;10.962;2023-02-28T15:57:54;101148.44;;;19.66;26.40
45813;BME280;31519;45.408;10.962;2023-02-28T16:00:28;101143.72;;;19.04;26.83
45813;BME280;31519;45.408;10.962;2023-02-28T16:02:57;101139.34;;;19.27;26.72
45813;BME280;31519;45.408;10.962;2023-02-28T16:05:30;101136.56;;;18.96;27.04
45813;BME280;31519;45.408;10.962;2023-02-28T16:08:15;101137.09;;;19.45;26.71
45813;BME280;31519;45.408;10.962;2023-02-28T16:10:43;101129.78;;;19.92;26.09
45813;BME280;31519;45.408;10.962;2023-02-28T16:13:12;101130.84;;;19.72;26.50
45813;BME280;31519;45.408;10.962;2023-02-28T16:15:43;101133.31;;;18.90;27.53
45813;BME280;31519;45.408;10.962;2023-02-28T16:18:12;101137.81;;;17.37;29.00
45813;BME280;31519;45.408;10.962;2023-02-28T16:20:40;101142.75;;;17.35;29.20
45813;BME280;31519;45.408;10.962;2023-02-28T16:23:09;101134.38;;;16.83;30.08